sensor_id;sensor_type;location;lat;lon;timestamp;temperature;humidity
41928;DHT22;27616;51.420;6.788;2023-06-22T00:01:51;21.80;98.70
41928;DHT22;27616;51.420;6.788;2023-06-22T00:04:16;21.70;98.80
41928;DHT22;27616;51.420;6.788;2023-06-22T00:06:42;21.70;99.10
41928;DHT22;27616;51.420;6.788;2023-06-22T00:09:08;21.70;99.20
41928;DHT22;27616;51.420;6.788;2023-06-22T00:11:33;21.70;99.30
41928;DHT22;27616;51.420;6.788;2023-06-22T00:14:00;21.70;99.50
41928;DHT22;27616;51.420;6.788;2023-06-22T00:16:25;21.70;99.60
41928;DHT22;27616;51.420;6.788;2023-06-22T00:18:51;21.60;99.70
41928;DHT22;27616;51.420;6.788;2023-06-22T00:21:16;21.60;99.90
41928;DHT22;27616;51.420;6.788;2023-06-22T00:23:42;21.60;99.90
41928;DHT22;27616;51.420;6.788;2023-06-22T00:26:08;21.60;99.90
41928;DHT22;27616;51.420;6.788;2023-06-22T00:28:34;21.60;99.90
41928;DHT22;27616;51.420;6.788;2023-06-22T00:31:01;21.60;99.90
41928;DHT22;27616;51.420;6.788;2023-06-22T00:33:26;21.50;99.90
41928;DHT22;27616;51.420;6.788;2023-06-22T00:35:53;21.50;99.90
41928;DHT22;27616;51.420;6.788;2023-06-22T00:38:19;21.50;99.90
41928;DHT22;27616;51.420;6.788;2023-06-22T00:40:45;21.40;99.90
41928;DHT22;27616;51.420;6.788;2023-06-22T00:43:11;21.40;99.90
41928;DHT22;27616;51.420;6.788;2023-06-22T00:45:36;21.40;99.90
41928;DHT22;27616;51.420;6.788;2023-06-22T00:48:02;21.40;99.90
41928;DHT22;27616;51.420;6.788;2023-06-22T00:50:32;21.40;99.90
41928;DHT22;27616;51.420;6.788;2023-06-22T00:53:03;21.40;99.90
41928;DHT22;27616;51.420;6.788;2023-06-22T00:55:37;21.30;99.90
41928;DHT22;27616;51.420;6.788;2023-06-22T00:58:07;21.30;99.90
41928;DHT22;27616;51.420;6.788;2023-06-22T01:00:36;21.20;99.90
41928;DHT22;27616;51.420;6.788;2023-06-22T01:03:03;21.10;99.90
41928;DHT22;27616;51.420;6.788;2023-06-22T01:05:29;21.20;99.90
41928;DHT22;27616;51.420;6.788;2023-06-22T01:11:00;21.10;99.90
41928;DHT22;27616;51.420;6.788;2023-06-22T01:16:33;21.10;99.90
41928;DHT22;27616;51.420;6.788;2023-06-22T01:19:05;21.10;99.90
41928;DHT22;27616;51.420;6.788;2023-06-22T01:21:35;21.00;99.90
41928;DHT22;27616;51.420;6.788;2023-06-22T01:27:31;21.00;99.90
41928;DHT22;27616;51.420;6.788;2023-06-22T01:29:58;21.00;99.90
41928;DHT22;27616;51.420;6.788;2023-06-22T01:32:32;20.90;99.90
41928;DHT22;27616;51.420;6.788;2023-06-22T01:35:00;20.90;99.90
41928;DHT22;27616;51.420;6.788;2023-06-22T01:37:28;20.90;99.90
41928;DHT22;27616;51.420;6.788;2023-06-22T01:39:55;20.80;99.90
41928;DHT22;27616;51.420;6.788;2023-06-22T01:42:24;20.80;99.90
41928;DHT22;27616;51.420;6.788;2023-06-22T01:44:51;20.80;99.90
41928;DHT22;27616;51.420;6.788;2023-06-22T01:47:17;20.70;99.90
41928;DHT22;27616;51.420;6.788;2023-06-22T01:49:43;20.60;99.90
41928;DHT22;27616;51.420;6.788;2023-06-22T01:52:09;20.70;99.90
41928;DHT22;27616;51.420;6.788;2023-06-22T01:54:35;20.70;99.90
41928;DHT22;27616;51.420;6.788;2023-06-22T01:57:00;20.60;99.90
41928;DHT22;27616;51.420;6.788;2023-06-22T01:59:34;20.60;99.90
41928;DHT22;27616;51.420;6.788;2023-06-22T02:02:06;20.60;99.90
41928;DHT22;27616;51.420;6.788;2023-06-22T02:04:37;20.60;99.90
41928;DHT22;27616;51.420;6.788;2023-06-22T02:07:10;20.60;99.90
41928;DHT22;27616;51.420;6.788;2023-06-22T02:09:38;20.70;99.90
41928;DHT22;27616;51.420;6.788;2023-06-22T02:12:08;20.70;99.90
41928;DHT22;27616;51.420;6.788;2023-06-22T02:14:36;20.70;99.90
41928;DHT22;27616;51.420;6.788;2023-06-22T02:17:02;20.70;99.90
41928;DHT22;27616;51.420;6.788;2023-06-22T02:19:30;20.70;99.90
41928;DHT22;27616;51.420;6.788;2023-06-22T02:21:58;20.70;99.90
41928;DHT22;27616;51.420;6.788;2023-06-22T02:24:24;20.70;99.90
41928;DHT22;27616;51.420;6.788;2023-06-22T02:26:49;20.70;99.90
41928;DHT22;27616;51.420;6.788;2023-06-22T02:29:15;20.60;99.90
41928;DHT22;27616;51.420;6.788;2023-06-22T02:31:42;20.70;99.90
41928;DHT22;27616;51.420;6.788;2023-06-22T02:34:07;20.60;99.90
41928;DHT22;27616;51.420;6.788;2023-06-22T02:36:33;20.60;99.90
41928;DHT22;27616;51.420;6.788;2023-06-22T02:39:00;20.60;99.90
41928;DHT22;27616;51.420;6.788;2023-06-22T02:41:27;20.60;99.90
41928;DHT22;27616;51.420;6.788;2023-06-22T02:43:55;20.50;99.90
41928;DHT22;27616;51.420;6.788;2023-06-22T02:46:21;20.50;99.90
41928;DHT22;27616;51.420;6.788;2023-06-22T02:48:47;20.40;99.90
41928;DHT22;27616;51.420;6.788;2023-06-22T02:51:13;20.40;99.90
41928;DHT22;27616;51.420;6.788;2023-06-22T02:53:40;20.40;99.90
41928;DHT22;27616;51.420;6.788;2023-06-22T02:56:10;20.40;99.90
41928;DHT22;27616;51.420;6.788;2023-06-22T02:58:37;20.40;99.90
41928;DHT22;27616;51.420;6.788;2023-06-22T03:01:07;20.40;99.90
41928;DHT22;27616;51.420;6.788;2023-06-22T03:03:34;20.40;99.90
41928;DHT22;27616;51.420;6.788;2023-06-22T03:05:59;20.40;99.90
41928;DHT22;27616;51.420;6.788;2023-06-22T03:08:27;20.40;99.90
41928;DHT22;27616;51.420;6.788;2023-06-22T03:10:53;20.40;99.90
41928;DHT22;27616;51.420;6.788;2023-06-22T03:13:19;20.30;99.90
41928;DHT22;27616;51.420;6.788;2023-06-22T03:15:45;20.30;99.90
41928;DHT22;27616;51.420;6.788;2023-06-22T03:18:11;20.30;99.90
41928;DHT22;27616;51.420;6.788;2023-06-22T03:20:37;20.30;99.90
41928;DHT22;27616;51.420;6.788;2023-06-22T03:23:02;20.20;99.90
41928;DHT22;27616;51.420;6.788;2023-06-22T03:25:28;20.20;99.90
41928;DHT22;27616;51.420;6.788;2023-06-22T03:27:54;20.20;99.90
41928;DHT22;27616;51.420;6.788;2023-06-22T03:30:22;20.20;99.90
41928;DHT22;27616;51.420;6.788;2023-06-22T03:32:47;20.20;99.90
41928;DHT22;27616;51.420;6.788;2023-06-22T03:35:13;20.20;99.90
41928;DHT22;27616;51.420;6.788;2023-06-22T03:37:39;20.20;99.90
41928;DHT22;27616;51.420;6.788;2023-06-22T03:40:05;20.20;99.90
41928;DHT22;27616;51.420;6.788;2023-06-22T03:42:34;20.20;99.90
41928;DHT22;27616;51.420;6.788;2023-06-22T03:45:02;20.20;99.90
41928;DHT22;27616;51.420;6.788;2023-06-22T03:47:29;20.20;99.90
41928;DHT22;27616;51.420;6.788;2023-06-22T03:49:56;20.20;99.90
41928;DHT22;27616;51.420;6.788;2023-06-22T03:52:22;20.20;99.90
41928;DHT22;27616;51.420;6.788;2023-06-22T03:54:48;20.10;99.90
41928;DHT22;27616;51.420;6.788;2023-06-22T03:57:14;20.20;99.90
41928;DHT22;27616;51.420;6.788;2023-06-22T03:59:39;20.20;99.90
41928;DHT22;27616;51.420;6.788;2023-06-22T04:02:05;20.20;99.90
41928;DHT22;27616;51.420;6.788;2023-06-22T04:04:30;20.20;99.90
41928;DHT22;27616;51.420;6.788;2023-06-22T04:06:56;20.20;99.90
41928;DHT22;27616;51.420;6.788;2023-06-22T04:09:22;20.30;99.90
41928;DHT22;27616;51.420;6.788;2023-06-22T04:11:47;20.30;99.90
41928;DHT22;27616;51.420;6.788;2023-06-22T04:14:13;20.30;99.90
41928;DHT22;27616;51.420;6.788;2023-06-22T04:16:39;20.30;99.90
41928;DHT22;27616;51.420;6.788;2023-06-22T04:19:04;20.30;99.90
41928;DHT22;27616;51.420;6.788;2023-06-22T04:21:30;20.40;99.90
41928;DHT22;27616;51.420;6.788;2023-06-22T04:23:55;20.40;99.90
41928;DHT22;27616;51.420;6.788;2023-06-22T04:26:21;20.40;99.90
41928;DHT22;27616;51.420;6.788;2023-06-22T04:28:47;20.40;99.90
41928;DHT22;27616;51.420;6.788;2023-06-22T04:31:17;20.40;99.90
41928;DHT22;27616;51.420;6.788;2023-06-22T04:33:45;20.50;99.90
41928;DHT22;27616;51.420;6.788;2023-06-22T04:36:10;20.50;99.90
41928;DHT22;27616;51.420;6.788;2023-06-22T04:38:39;20.50;99.90
41928;DHT22;27616;51.420;6.788;2023-06-22T04:41:05;20.50;99.90
41928;DHT22;27616;51.420;6.788;2023-06-22T04:43:33;20.40;99.90
41928;DHT22;27616;51.420;6.788;2023-06-22T04:45:59;20.50;99.90
41928;DHT22;27616;51.420;6.788;2023-06-22T04:48:29;20.50;99.90
41928;DHT22;27616;51.420;6.788;2023-06-22T04:50:59;20.50;99.90
41928;DHT22;27616;51.420;6.788;2023-06-22T04:53:31;20.50;99.90
41928;DHT22;27616;51.420;6.788;2023-06-22T04:55:56;20.50;99.90
41928;DHT22;27616;51.420;6.788;2023-06-22T04:58:22;20.50;99.90
41928;DHT22;27616;51.420;6.788;2023-06-22T05:00:48;20.50;99.90
41928;DHT22;27616;51.420;6.788;2023-06-22T05:03:13;20.50;99.90
41928;DHT22;27616;51.420;6.788;2023-06-22T05:05:39;20.50;99.90
41928;DHT22;27616;51.420;6.788;2023-06-22T05:08:04;20.50;99.90
41928;DHT22;27616;51.420;6.788;2023-06-22T05:10:32;20.50;99.90
41928;DHT22;27616;51.420;6.788;2023-06-22T05:12:58;20.50;99.90
41928;DHT22;27616;51.420;6.788;2023-06-22T05:15:24;20.60;99.90
41928;DHT22;27616;51.420;6.788;2023-06-22T05:17:53;20.60;99.90
41928;DHT22;27616;51.420;6.788;2023-06-22T05:20:19;20.60;99.90
41928;DHT22;27616;51.420;6.788;2023-06-22T05:22:44;20.60;99.90
41928;DHT22;27616;51.420;6.788;2023-06-22T05:25:11;20.60;99.90
41928;DHT22;27616;51.420;6.788;2023-06-22T05:27:37;20.60;99.90
41928;DHT22;27616;51.420;6.788;2023-06-22T05:30:07;20.60;99.90
41928;DHT22;27616;51.420;6.788;2023-06-22T05:32:33;20.60;99.90
41928;DHT22;27616;51.420;6.788;2023-06-22T05:34:59;20.60;99.90
41928;DHT22;27616;51.420;6.788;2023-06-22T05:37:25;20.70;99.90
41928;DHT22;27616;51.420;6.788;2023-06-22T05:39:51;20.70;99.90
41928;DHT22;27616;51.420;6.788;2023-06-22T05:42:17;20.70;99.90
41928;DHT22;27616;51.420;6.788;2023-06-22T05:44:42;20.60;99.90
41928;DHT22;27616;51.420;6.788;2023-06-22T05:47:08;20.60;99.90
41928;DHT22;27616;51.420;6.788;2023-06-22T05:49:34;20.60;99.90
41928;DHT22;27616;51.420;6.788;2023-06-22T05:52:00;20.60;99.90
41928;DHT22;27616;51.420;6.788;2023-06-22T05:54:27;20.60;99.90
41928;DHT22;27616;51.420;6.788;2023-06-22T05:56:52;20.60;99.90
41928;DHT22;27616;51.420;6.788;2023-06-22T05:59:18;20.60;99.90
41928;DHT22;27616;51.420;6.788;2023-06-22T06:01:44;20.50;99.90
41928;DHT22;27616;51.420;6.788;2023-06-22T06:04:10;20.50;99.90
41928;DHT22;27616;51.420;6.788;2023-06-22T06:06:35;20.50;99.90
41928;DHT22;27616;51.420;6.788;2023-06-22T06:09:05;20.40;99.90
41928;DHT22;27616;51.420;6.788;2023-06-22T06:11:33;20.40;99.90
41928;DHT22;27616;51.420;6.788;2023-06-22T06:13:58;20.30;99.90
41928;DHT22;27616;51.420;6.788;2023-06-22T06:16:24;20.20;99.90
41928;DHT22;27616;51.420;6.788;2023-06-22T06:18:50;20.20;99.90
41928;DHT22;27616;51.420;6.788;2023-06-22T06:21:16;20.10;99.90
41928;DHT22;27616;51.420;6.788;2023-06-22T06:23:42;19.90;99.90
41928;DHT22;27616;51.420;6.788;2023-06-22T06:26:08;19.80;99.90
41928;DHT22;27616;51.420;6.788;2023-06-22T06:28:34;19.70;99.90
41928;DHT22;27616;51.420;6.788;2023-06-22T06:31:00;19.70;99.90
41928;DHT22;27616;51.420;6.788;2023-06-22T06:33:26;19.60;99.90
41928;DHT22;27616;51.420;6.788;2023-06-22T06:35:52;19.60;99.90
41928;DHT22;27616;51.420;6.788;2023-06-22T06:38:17;19.50;99.90
41928;DHT22;27616;51.420;6.788;2023-06-22T06:40:43;19.40;99.90
41928;DHT22;27616;51.420;6.788;2023-06-22T06:43:10;19.40;99.90
41928;DHT22;27616;51.420;6.788;2023-06-22T06:45:36;19.40;99.90
41928;DHT22;27616;51.420;6.788;2023-06-22T06:48:01;19.40;99.90
41928;DHT22;27616;51.420;6.788;2023-06-22T06:50:28;19.40;99.90
41928;DHT22;27616;51.420;6.788;2023-06-22T06:52:53;19.50;99.90
41928;DHT22;27616;51.420;6.788;2023-06-22T06:55:19;19.60;99.90
41928;DHT22;27616;51.420;6.788;2023-06-22T06:57:45;19.60;99.90
41928;DHT22;27616;51.420;6.788;2023-06-22T07:00:14;19.70;99.90
41928;DHT22;27616;51.420;6.788;2023-06-22T07:02:41;19.70;99.90
41928;DHT22;27616;51.420;6.788;2023-06-22T07:05:08;19.80;99.90
41928;DHT22;27616;51.420;6.788;2023-06-22T07:07:34;19.90;99.90
41928;DHT22;27616;51.420;6.788;2023-06-22T07:10:00;19.90;99.90
41928;DHT22;27616;51.420;6.788;2023-06-22T07:12:26;19.90;99.90
41928;DHT22;27616;51.420;6.788;2023-06-22T07:14:52;19.90;99.90
41928;DHT22;27616;51.420;6.788;2023-06-22T07:17:18;19.90;99.90
41928;DHT22;27616;51.420;6.788;2023-06-22T07:19:44;19.90;99.90
41928;DHT22;27616;51.420;6.788;2023-06-22T07:22:09;20.00;99.90
41928;DHT22;27616;51.420;6.788;2023-06-22T07:24:35;20.00;99.90
41928;DHT22;27616;51.420;6.788;2023-06-22T07:27:00;20.00;99.90
41928;DHT22;27616;51.420;6.788;2023-06-22T07:29:27;20.00;99.90
41928;DHT22;27616;51.420;6.788;2023-06-22T07:31:53;20.00;99.90
41928;DHT22;27616;51.420;6.788;2023-06-22T07:34:21;20.10;99.90
41928;DHT22;27616;51.420;6.788;2023-06-22T07:36:47;20.20;99.90
41928;DHT22;27616;51.420;6.788;2023-06-22T07:39:13;20.20;99.90
41928;DHT22;27616;51.420;6.788;2023-06-22T07:41:40;20.20;99.90
41928;DHT22;27616;51.420;6.788;2023-06-22T07:44:08;20.30;99.90
41928;DHT22;27616;51.420;6.788;2023-06-22T07:46:34;20.20;99.90
41928;DHT22;27616;51.420;6.788;2023-06-22T07:48:59;20.20;99.90
41928;DHT22;27616;51.420;6.788;2023-06-22T07:51:26;20.20;99.90
41928;DHT22;27616;51.420;6.788;2023-06-22T07:53:52;20.20;99.90
41928;DHT22;27616;51.420;6.788;2023-06-22T07:56:18;20.20;99.90
41928;DHT22;27616;51.420;6.788;2023-06-22T07:58:47;20.10;99.90
41928;DHT22;27616;51.420;6.788;2023-06-22T08:01:16;20.10;99.90
41928;DHT22;27616;51.420;6.788;2023-06-22T08:03:42;20.10;99.90
41928;DHT22;27616;51.420;6.788;2023-06-22T08:06:09;20.10;99.90
41928;DHT22;27616;51.420;6.788;2023-06-22T08:08:38;20.20;99.90
41928;DHT22;27616;51.420;6.788;2023-06-22T08:11:03;20.20;99.90
41928;DHT22;27616;51.420;6.788;2023-06-22T08:13:29;20.20;99.90
41928;DHT22;27616;51.420;6.788;2023-06-22T08:15:55;20.20;99.90
41928;DHT22;27616;51.420;6.788;2023-06-22T08:18:21;20.30;99.90
41928;DHT22;27616;51.420;6.788;2023-06-22T08:20:46;20.30;99.90
41928;DHT22;27616;51.420;6.788;2023-06-22T08:23:12;20.30;99.90
41928;DHT22;27616;51.420;6.788;2023-06-22T08:25:37;20.50;99.90
41928;DHT22;27616;51.420;6.788;2023-06-22T08:28:04;20.50;99.90
41928;DHT22;27616;51.420;6.788;2023-06-22T08:30:29;20.60;99.90
41928;DHT22;27616;51.420;6.788;2023-06-22T08:32:55;20.60;99.90
41928;DHT22;27616;51.420;6.788;2023-06-22T08:35:22;20.60;99.90
41928;DHT22;27616;51.420;6.788;2023-06-22T08:37:48;20.70;99.90
41928;DHT22;27616;51.420;6.788;2023-06-22T08:40:19;20.70;99.90
41928;DHT22;27616;51.420;6.788;2023-06-22T08:42:46;20.80;99.90
41928;DHT22;27616;51.420;6.788;2023-06-22T08:45:12;20.90;99.90
41928;DHT22;27616;51.420;6.788;2023-06-22T08:47:39;21.00;99.90
41928;DHT22;27616;51.420;6.788;2023-06-22T08:50:05;21.00;99.90
41928;DHT22;27616;51.420;6.788;2023-06-22T08:52:32;21.00;99.90
41928;DHT22;27616;51.420;6.788;2023-06-22T08:54:57;21.10;99.90
41928;DHT22;27616;51.420;6.788;2023-06-22T08:57:27;21.10;99.90
41928;DHT22;27616;51.420;6.788;2023-06-22T08:59:52;21.10;99.90
41928;DHT22;27616;51.420;6.788;2023-06-22T09:02:18;21.20;99.90
41928;DHT22;27616;51.420;6.788;2023-06-22T09:04:46;21.30;99.90
41928;DHT22;27616;51.420;6.788;2023-06-22T09:07:11;21.40;99.90
41928;DHT22;27616;51.420;6.788;2023-06-22T09:09:37;21.40;99.90
41928;DHT22;27616;51.420;6.788;2023-06-22T09:12:03;21.50;99.90
41928;DHT22;27616;51.420;6.788;2023-06-22T09:14:29;21.60;99.90
41928;DHT22;27616;51.420;6.788;2023-06-22T09:16:55;21.80;99.90
41928;DHT22;27616;51.420;6.788;2023-06-22T09:19:20;22.00;99.90
41928;DHT22;27616;51.420;6.788;2023-06-22T09:21:46;22.10;99.90
41928;DHT22;27616;51.420;6.788;2023-06-22T09:24:11;22.30;99.90
41928;DHT22;27616;51.420;6.788;2023-06-22T09:26:37;22.50;99.90
41928;DHT22;27616;51.420;6.788;2023-06-22T09:29:05;22.70;99.90
41928;DHT22;27616;51.420;6.788;2023-06-22T09:31:31;22.90;99.90
41928;DHT22;27616;51.420;6.788;2023-06-22T09:33:57;23.00;99.90
41928;DHT22;27616;51.420;6.788;2023-06-22T09:36:22;23.20;99.90
41928;DHT22;27616;51.420;6.788;2023-06-22T09:38:48;23.30;99.90
41928;DHT22;27616;51.420;6.788;2023-06-22T09:41:14;23.50;99.90
41928;DHT22;27616;51.420;6.788;2023-06-22T09:43:41;23.60;99.90
41928;DHT22;27616;51.420;6.788;2023-06-22T09:46:06;23.60;99.90
41928;DHT22;27616;51.420;6.788;2023-06-22T09:48:32;23.60;99.90
41928;DHT22;27616;51.420;6.788;2023-06-22T09:50:58;23.60;99.90
41928;DHT22;27616;51.420;6.788;2023-06-22T09:53:23;23.70;99.90
41928;DHT22;27616;51.420;6.788;2023-06-22T09:55:49;23.70;99.90
41928;DHT22;27616;51.420;6.788;2023-06-22T09:58:15;23.90;99.90
41928;DHT22;27616;51.420;6.788;2023-06-22T10:00:40;24.00;99.90
41928;DHT22;27616;51.420;6.788;2023-06-22T10:03:07;24.20;99.90
41928;DHT22;27616;51.420;6.788;2023-06-22T10:05:33;24.30;99.90
41928;DHT22;27616;51.420;6.788;2023-06-22T10:07:58;24.40;99.90
41928;DHT22;27616;51.420;6.788;2023-06-22T10:10:24;24.50;99.90
41928;DHT22;27616;51.420;6.788;2023-06-22T10:12:57;24.60;99.90
41928;DHT22;27616;51.420;6.788;2023-06-22T10:15:23;24.80;99.90
41928;DHT22;27616;51.420;6.788;2023-06-22T10:17:49;24.80;99.90
41928;DHT22;27616;51.420;6.788;2023-06-22T10:20:14;24.90;99.90
41928;DHT22;27616;51.420;6.788;2023-06-22T10:22:44;25.10;99.90
41928;DHT22;27616;51.420;6.788;2023-06-22T10:25:11;25.20;99.90
41928;DHT22;27616;51.420;6.788;2023-06-22T10:27:37;25.30;99.90
41928;DHT22;27616;51.420;6.788;2023-06-22T10:30:10;25.50;99.90
41928;DHT22;27616;51.420;6.788;2023-06-22T10:32:38;25.50;99.90
41928;DHT22;27616;51.420;6.788;2023-06-22T10:35:04;25.50;99.90
41928;DHT22;27616;51.420;6.788;2023-06-22T10:37:30;25.50;99.90
41928;DHT22;27616;51.420;6.788;2023-06-22T10:39:56;25.50;99.90
41928;DHT22;27616;51.420;6.788;2023-06-22T10:42:21;25.40;99.90
41928;DHT22;27616;51.420;6.788;2023-06-22T10:44:47;25.40;99.90
41928;DHT22;27616;51.420;6.788;2023-06-22T10:47:13;25.30;99.90
41928;DHT22;27616;51.420;6.788;2023-06-22T10:49:39;25.20;99.90
41928;DHT22;27616;51.420;6.788;2023-06-22T10:52:06;25.10;99.90
41928;DHT22;27616;51.420;6.788;2023-06-22T10:54:33;25.10;99.90
41928;DHT22;27616;51.420;6.788;2023-06-22T10:56:59;25.00;99.90
41928;DHT22;27616;51.420;6.788;2023-06-22T10:59:25;24.90;99.90
41928;DHT22;27616;51.420;6.788;2023-06-22T11:01:52;24.80;99.90
41928;DHT22;27616;51.420;6.788;2023-06-22T11:04:18;24.70;99.90
41928;DHT22;27616;51.420;6.788;2023-06-22T11:06:43;24.60;99.90
41928;DHT22;27616;51.420;6.788;2023-06-22T11:09:09;24.50;99.90
41928;DHT22;27616;51.420;6.788;2023-06-22T11:11:35;24.50;99.90
41928;DHT22;27616;51.420;6.788;2023-06-22T11:14:00;24.40;99.90
41928;DHT22;27616;51.420;6.788;2023-06-22T11:16:26;24.40;99.90
41928;DHT22;27616;51.420;6.788;2023-06-22T11:18:52;24.30;99.90
41928;DHT22;27616;51.420;6.788;2023-06-22T11:21:18;24.30;99.90
41928;DHT22;27616;51.420;6.788;2023-06-22T11:23:43;24.20;99.90
41928;DHT22;27616;51.420;6.788;2023-06-22T11:26:09;24.10;99.90
41928;DHT22;27616;51.420;6.788;2023-06-22T11:28:34;24.00;99.90
41928;DHT22;27616;51.420;6.788;2023-06-22T11:31:00;23.90;99.90
41928;DHT22;27616;51.420;6.788;2023-06-22T11:33:26;23.80;99.90
41928;DHT22;27616;51.420;6.788;2023-06-22T11:35:51;23.60;99.90
41928;DHT22;27616;51.420;6.788;2023-06-22T11:38:17;23.40;99.90
41928;DHT22;27616;51.420;6.788;2023-06-22T11:40:42;23.30;99.90
41928;DHT22;27616;51.420;6.788;2023-06-22T11:43:08;23.20;99.90
41928;DHT22;27616;51.420;6.788;2023-06-22T11:45:34;23.10;99.90
41928;DHT22;27616;51.420;6.788;2023-06-22T11:47:59;23.10;99.90
41928;DHT22;27616;51.420;6.788;2023-06-22T11:50:25;22.80;99.90
41928;DHT22;27616;51.420;6.788;2023-06-22T11:52:50;22.50;99.90
41928;DHT22;27616;51.420;6.788;2023-06-22T11:55:18;22.10;99.90
41928;DHT22;27616;51.420;6.788;2023-06-22T11:57:57;21.90;99.90
41928;DHT22;27616;51.420;6.788;2023-06-22T12:00:25;21.80;99.90
41928;DHT22;27616;51.420;6.788;2023-06-22T12:02:51;21.60;99.90
41928;DHT22;27616;51.420;6.788;2023-06-22T12:05:20;21.50;99.90
41928;DHT22;27616;51.420;6.788;2023-06-22T12:07:47;21.40;99.90
41928;DHT22;27616;51.420;6.788;2023-06-22T12:10:12;21.30;99.90
41928;DHT22;27616;51.420;6.788;2023-06-22T12:12:38;21.20;99.90
41928;DHT22;27616;51.420;6.788;2023-06-22T12:15:04;21.20;99.90
41928;DHT22;27616;51.420;6.788;2023-06-22T12:17:31;21.20;99.90
41928;DHT22;27616;51.420;6.788;2023-06-22T12:19:56;21.20;99.90
41928;DHT22;27616;51.420;6.788;2023-06-22T12:22:22;21.20;99.90
41928;DHT22;27616;51.420;6.788;2023-06-22T12:24:48;21.20;99.90
41928;DHT22;27616;51.420;6.788;2023-06-22T12:27:14;21.30;99.90
41928;DHT22;27616;51.420;6.788;2023-06-22T12:29:41;21.30;99.90
41928;DHT22;27616;51.420;6.788;2023-06-22T12:32:07;21.30;99.90
41928;DHT22;27616;51.420;6.788;2023-06-22T12:34:33;21.40;99.90
41928;DHT22;27616;51.420;6.788;2023-06-22T12:36:58;21.60;99.90
41928;DHT22;27616;51.420;6.788;2023-06-22T12:39:24;21.60;99.90
41928;DHT22;27616;51.420;6.788;2023-06-22T12:41:50;21.70;99.90
41928;DHT22;27616;51.420;6.788;2023-06-22T12:44:15;21.80;99.90
41928;DHT22;27616;51.420;6.788;2023-06-22T12:46:41;21.80;99.90
41928;DHT22;27616;51.420;6.788;2023-06-22T12:49:06;21.80;99.90
41928;DHT22;27616;51.420;6.788;2023-06-22T12:51:32;21.90;99.90
41928;DHT22;27616;51.420;6.788;2023-06-22T12:53:59;21.90;99.90
41928;DHT22;27616;51.420;6.788;2023-06-22T12:56:25;21.80;99.90
41928;DHT22;27616;51.420;6.788;2023-06-22T12:58:50;21.80;99.90
41928;DHT22;27616;51.420;6.788;2023-06-22T13:01:16;21.80;99.90
41928;DHT22;27616;51.420;6.788;2023-06-22T13:03:43;21.80;99.90
41928;DHT22;27616;51.420;6.788;2023-06-22T13:06:09;21.80;99.90
41928;DHT22;27616;51.420;6.788;2023-06-22T13:08:34;21.80;99.90
41928;DHT22;27616;51.420;6.788;2023-06-22T13:11:00;21.80;99.90
41928;DHT22;27616;51.420;6.788;2023-06-22T13:13:25;21.80;99.90
41928;DHT22;27616;51.420;6.788;2023-06-22T13:15:52;21.80;99.90
41928;DHT22;27616;51.420;6.788;2023-06-22T13:18:19;21.80;99.90
41928;DHT22;27616;51.420;6.788;2023-06-22T13:20:45;21.80;99.90
41928;DHT22;27616;51.420;6.788;2023-06-22T13:23:11;21.70;99.90
41928;DHT22;27616;51.420;6.788;2023-06-22T13:25:37;21.70;99.90
41928;DHT22;27616;51.420;6.788;2023-06-22T13:28:03;21.70;99.90
41928;DHT22;27616;51.420;6.788;2023-06-22T13:30:29;21.70;99.90
41928;DHT22;27616;51.420;6.788;2023-06-22T13:32:55;21.70;99.90
41928;DHT22;27616;51.420;6.788;2023-06-22T13:35:21;21.70;99.90
41928;DHT22;27616;51.420;6.788;2023-06-22T13:37:46;21.80;99.90
41928;DHT22;27616;51.420;6.788;2023-06-22T13:40:12;21.80;99.90
41928;DHT22;27616;51.420;6.788;2023-06-22T13:42:37;21.80;99.90
41928;DHT22;27616;51.420;6.788;2023-06-22T13:45:04;21.90;99.90
41928;DHT22;27616;51.420;6.788;2023-06-22T13:47:30;21.90;99.90
41928;DHT22;27616;51.420;6.788;2023-06-22T13:49:56;22.00;99.90
41928;DHT22;27616;51.420;6.788;2023-06-22T13:52:23;22.10;99.90
41928;DHT22;27616;51.420;6.788;2023-06-22T13:54:48;22.20;99.90
41928;DHT22;27616;51.420;6.788;2023-06-22T13:57:14;22.20;99.90
41928;DHT22;27616;51.420;6.788;2023-06-22T13:59:40;22.40;99.90
41928;DHT22;27616;51.420;6.788;2023-06-22T14:02:06;22.40;99.90
41928;DHT22;27616;51.420;6.788;2023-06-22T14:04:31;22.50;99.90
41928;DHT22;27616;51.420;6.788;2023-06-22T14:06:57;22.50;99.90
41928;DHT22;27616;51.420;6.788;2023-06-22T14:09:23;22.60;99.90
41928;DHT22;27616;51.420;6.788;2023-06-22T14:11:49;22.60;99.90
41928;DHT22;27616;51.420;6.788;2023-06-22T14:14:14;22.60;99.90
41928;DHT22;27616;51.420;6.788;2023-06-22T14:16:40;22.60;99.90
41928;DHT22;27616;51.420;6.788;2023-06-22T14:19:05;22.60;99.90
41928;DHT22;27616;51.420;6.788;2023-06-22T14:21:31;22.50;99.90
41928;DHT22;27616;51.420;6.788;2023-06-22T14:23:56;22.50;99.90
41928;DHT22;27616;51.420;6.788;2023-06-22T14:26:22;22.40;99.90
41928;DHT22;27616;51.420;6.788;2023-06-22T14:28:48;22.40;99.90
41928;DHT22;27616;51.420;6.788;2023-06-22T14:31:16;22.30;99.90
41928;DHT22;27616;51.420;6.788;2023-06-22T14:33:49;22.30;99.90
41928;DHT22;27616;51.420;6.788;2023-06-22T14:36:17;22.30;99.90
41928;DHT22;27616;51.420;6.788;2023-06-22T14:38:43;22.30;99.90
41928;DHT22;27616;51.420;6.788;2023-06-22T14:41:09;22.30;99.90
41928;DHT22;27616;51.420;6.788;2023-06-22T14:43:35;22.30;99.90
41928;DHT22;27616;51.420;6.788;2023-06-22T14:46:00;22.20;99.90
41928;DHT22;27616;51.420;6.788;2023-06-22T14:48:26;22.20;99.90
41928;DHT22;27616;51.420;6.788;2023-06-22T14:50:52;22.10;99.90
41928;DHT22;27616;51.420;6.788;2023-06-22T14:53:19;22.10;99.90
41928;DHT22;27616;51.420;6.788;2023-06-22T14:55:45;22.10;99.90
41928;DHT22;27616;51.420;6.788;2023-06-22T14:58:11;22.10;99.90
41928;DHT22;27616;51.420;6.788;2023-06-22T15:00:37;22.10;99.90
41928;DHT22;27616;51.420;6.788;2023-06-22T15:03:04;22.00;99.90
41928;DHT22;27616;51.420;6.788;2023-06-22T15:05:32;22.00;99.90
41928;DHT22;27616;51.420;6.788;2023-06-22T15:07:57;22.10;99.90
41928;DHT22;27616;51.420;6.788;2023-06-22T15:10:23;22.10;99.90
41928;DHT22;27616;51.420;6.788;2023-06-22T15:12:50;22.10;99.90
41928;DHT22;27616;51.420;6.788;2023-06-22T15:15:15;22.10;99.90
41928;DHT22;27616;51.420;6.788;2023-06-22T15:17:41;22.00;99.90
41928;DHT22;27616;51.420;6.788;2023-06-22T15:20:07;22.10;99.90
41928;DHT22;27616;51.420;6.788;2023-06-22T15:22:32;22.00;99.90
41928;DHT22;27616;51.420;6.788;2023-06-22T15:24:58;22.00;99.90
41928;DHT22;27616;51.420;6.788;2023-06-22T15:27:24;22.00;99.90
41928;DHT22;27616;51.420;6.788;2023-06-22T15:29:50;22.00;99.90
41928;DHT22;27616;51.420;6.788;2023-06-22T15:32:16;22.00;99.90
41928;DHT22;27616;51.420;6.788;2023-06-22T15:34:41;22.00;99.90